createdAt,value
2018-03-23T00:00:43.617Z,16.17
2018-03-23T00:03:11.202Z,15.00
2018-03-23T00:05:38.778Z,12.63
2018-03-23T00:08:06.380Z,14.00
2018-03-23T00:10:34.717Z,14.07
2018-03-23T00:13:02.317Z,16.53
2018-03-23T00:15:30.493Z,12.83
2018-03-23T00:17:58.854Z,13.23
2018-03-23T00:20:26.417Z,14.50
2018-03-23T00:22:54.778Z,13.10
2018-03-23T00:25:22.952Z,12.63
2018-03-23T00:27:50.545Z,14.10
2018-03-23T00:30:18.105Z,12.60
2018-03-23T00:32:45.706Z,12.90
2018-03-23T00:35:13.268Z,13.87
2018-03-23T00:37:40.862Z,13.00
2018-03-23T00:40:08.435Z,13.80
2018-03-23T00:42:36.231Z,11.70
2018-03-23T00:45:03.802Z,12.00
2018-03-23T00:47:31.373Z,12.00
2018-03-23T00:49:59.728Z,12.87
2018-03-23T00:52:27.299Z,11.87
2018-03-23T00:54:54.889Z,12.40
2018-03-23T00:57:26.257Z,11.90
2018-03-23T00:59:55.521Z,11.80
2018-03-23T01:02:23.088Z,11.87
2018-03-23T01:04:50.705Z,10.93
2018-03-23T01:07:18.269Z,11.00
2018-03-23T01:09:45.860Z,11.43
2018-03-23T01:12:13.439Z,11.23
2018-03-23T01:14:41.798Z,12.40
2018-03-23T01:17:09.374Z,12.87
2018-03-23T01:19:36.975Z,15.13
2018-03-23T01:22:04.546Z,13.07
2018-03-23T01:24:32.143Z,12.80
2018-03-23T01:26:59.727Z,10.30
2018-03-23T01:29:28.092Z,10.90
2018-03-23T01:31:56.432Z,10.47
2018-03-23T01:34:24.026Z,10.83
2018-03-23T01:36:52.366Z,9.97
2018-03-23T01:39:19.929Z,9.67
2018-03-23T01:41:47.521Z,8.53
2018-03-23T01:44:15.854Z,10.67
2018-03-23T01:46:43.435Z,9.60
2018-03-23T01:49:11.018Z,9.90
2018-03-23T01:51:38.616Z,10.90
2018-03-23T01:54:06.186Z,13.20
2018-03-23T01:56:33.779Z,10.03
2018-03-23T01:59:02.134Z,11.90
2018-03-23T02:01:29.728Z,11.27
2018-03-23T02:03:57.301Z,9.30
2018-03-23T02:06:25.656Z,9.23
2018-03-23T02:08:53.221Z,7.90
2018-03-23T02:11:21.582Z,8.70
2018-03-23T02:13:49.149Z,9.93
2018-03-23T02:16:16.729Z,9.63
2018-03-23T02:18:44.290Z,9.77
2018-03-23T02:21:11.890Z,9.73
2018-03-23T02:23:39.458Z,12.07
2018-03-23T02:26:07.044Z,11.43
2018-03-23T02:28:34.619Z,12.17
2018-03-23T02:31:02.210Z,11.33
2018-03-23T02:33:29.782Z,12.13
2018-03-23T02:35:57.373Z,12.10
2018-03-23T02:38:24.937Z,12.50
2018-03-23T02:40:52.529Z,12.87
2018-03-23T02:43:20.104Z,13.27
2018-03-23T02:45:47.670Z,12.70
2018-03-23T02:48:15.257Z,12.67
2018-03-23T02:50:42.825Z,12.57
2018-03-23T02:53:10.417Z,12.03
2018-03-23T02:55:38.753Z,13.07
2018-03-23T02:58:06.341Z,11.50
2018-03-23T03:00:34.686Z,10.90
2018-03-23T03:03:02.841Z,12.40
2018-03-23T03:05:30.417Z,12.70
2018-03-23T03:07:58.017Z,11.20
2018-03-23T03:10:27.543Z,11.93
2018-03-23T03:12:55.141Z,11.27
2018-03-23T03:15:22.713Z,19.10
2018-03-23T03:17:50.343Z,11.60
2018-03-23T03:20:17.913Z,14.57
2018-03-23T03:22:46.273Z,12.37
2018-03-23T03:25:13.844Z,10.90
2018-03-23T03:27:41.445Z,11.17
2018-03-23T03:30:09.010Z,8.77
2018-03-23T03:32:36.598Z,7.77
2018-03-23T03:35:04.160Z,7.37
2018-03-23T03:37:31.749Z,6.90
2018-03-23T03:39:59.312Z,7.77
2018-03-23T03:42:26.902Z,7.40
2018-03-23T03:44:54.461Z,7.00
2018-03-23T03:47:22.816Z,6.77
2018-03-23T03:49:50.383Z,6.73
2018-03-23T03:52:17.979Z,6.20
2018-03-23T03:54:45.540Z,5.60
2018-03-23T03:57:13.097Z,7.67
2018-03-23T03:59:40.701Z,6.20
2018-03-23T04:02:08.269Z,13.57
2018-03-23T04:04:35.860Z,12.00
2018-03-23T04:07:03.429Z,13.50
2018-03-23T04:09:31.012Z,7.80
2018-03-23T04:11:58.588Z,11.90
2018-03-23T04:14:26.181Z,14.90
2018-03-23T04:16:53.754Z,9.80
2018-03-23T04:19:21.346Z,6.60
2018-03-23T04:21:48.914Z,6.50
2018-03-23T04:24:16.501Z,6.10
2018-03-23T04:26:44.078Z,6.63
2018-03-23T04:29:11.671Z,6.20
2018-03-23T04:31:39.250Z,6.30
2018-03-23T04:34:06.865Z,5.80
2018-03-23T04:36:34.433Z,13.23
2018-03-23T04:39:02.798Z,8.90
2018-03-23T04:41:31.142Z,8.43
2018-03-23T04:43:58.726Z,7.33
2018-03-23T04:46:26.316Z,7.97
2018-03-23T04:48:53.906Z,7.13
2018-03-23T04:51:21.473Z,8.50
2018-03-23T04:53:49.068Z,7.60
2018-03-23T04:56:16.654Z,9.10
2018-03-23T04:58:44.254Z,7.67
2018-03-23T05:01:11.835Z,8.43
2018-03-23T05:03:45.120Z,10.80
2018-03-23T05:06:12.698Z,9.50
2018-03-23T05:08:40.260Z,9.13
2018-03-23T05:11:07.860Z,9.30
2018-03-23T05:13:35.438Z,10.20
2018-03-23T05:16:03.022Z,8.87
2018-03-23T05:18:30.584Z,7.27
2018-03-23T05:20:58.166Z,7.47
2018-03-23T05:23:26.496Z,8.50
2018-03-23T05:25:54.087Z,7.80
2018-03-23T05:28:21.660Z,8.33
2018-03-23T05:30:50.013Z,7.50
2018-03-23T05:33:17.584Z,9.30
2018-03-23T05:35:45.937Z,7.00
2018-03-23T05:38:13.520Z,7.13
2018-03-23T05:40:41.154Z,9.10
2018-03-23T05:43:08.705Z,7.00
2018-03-23T05:45:36.341Z,7.43
2018-03-23T05:48:03.906Z,5.50
2018-03-23T05:50:31.488Z,4.43
2018-03-23T05:52:59.052Z,4.90
2018-03-23T05:55:26.632Z,5.57
2018-03-23T05:57:58.934Z,4.97
2018-03-23T06:00:26.520Z,4.30
2018-03-23T06:02:54.077Z,6.53
2018-03-23T06:05:21.641Z,6.73
2018-03-23T06:07:49.228Z,7.17
2018-03-23T06:10:16.785Z,4.40
2018-03-23T06:12:44.368Z,4.57
2018-03-23T06:15:12.778Z,4.30
2018-03-23T06:17:40.357Z,5.53
2018-03-23T06:20:07.927Z,3.50
2018-03-23T06:22:35.528Z,2.30
2018-03-23T06:25:03.862Z,5.33
2018-03-23T06:27:31.454Z,3.97
2018-03-23T06:29:59.786Z,3.10
2018-03-23T06:32:27.366Z,2.50
2018-03-23T06:34:54.947Z,2.80
2018-03-23T06:37:22.536Z,2.47
2018-03-23T06:39:50.103Z,3.50
2018-03-23T06:42:17.983Z,3.60
2018-03-23T06:44:45.543Z,3.00
2018-03-23T06:47:13.177Z,3.10
2018-03-23T06:49:40.717Z,3.13
2018-03-23T06:52:09.068Z,3.53
2018-03-23T06:54:36.634Z,3.33
2018-03-23T06:57:04.222Z,3.03
2018-03-23T06:59:31.789Z,3.97
2018-03-23T07:01:59.368Z,5.20
2018-03-23T07:04:26.927Z,5.60
2018-03-23T07:06:54.512Z,5.60
2018-03-23T07:09:22.073Z,5.60
2018-03-23T07:11:49.671Z,4.73
2018-03-23T07:14:18.798Z,5.13
2018-03-23T07:16:46.386Z,6.30
2018-03-23T07:19:13.973Z,8.03
2018-03-23T07:21:41.544Z,12.70
2018-03-23T07:24:09.914Z,7.30
2018-03-23T07:26:37.470Z,3.40
2018-03-23T07:29:05.818Z,3.50
2018-03-23T07:31:33.377Z,5.97
2018-03-23T07:34:00.969Z,5.70
2018-03-23T07:36:28.533Z,6.80
2018-03-23T07:38:56.876Z,6.03
2018-03-23T07:41:24.442Z,19.23
2018-03-23T07:43:52.029Z,5.30
2018-03-23T07:46:20.365Z,4.07
2018-03-23T07:48:48.181Z,2.60
2018-03-23T07:51:15.746Z,3.37
2018-03-23T07:53:43.346Z,3.07
2018-03-23T07:56:10.914Z,2.47
2018-03-23T07:58:38.507Z,2.07
2018-03-23T08:01:06.103Z,2.30
2018-03-23T08:03:33.684Z,5.00
2018-03-23T08:06:01.245Z,2.23
2018-03-23T08:08:28.860Z,3.13
2018-03-23T08:10:56.424Z,2.60
2018-03-23T08:13:24.433Z,3.50
2018-03-23T08:15:51.997Z,3.00
2018-03-23T08:18:19.591Z,3.80
2018-03-23T08:20:47.158Z,2.97
2018-03-23T08:23:14.719Z,2.77
2018-03-23T08:25:42.297Z,5.00
2018-03-23T08:28:09.853Z,3.83
2018-03-23T08:30:37.445Z,3.30
2018-03-23T08:33:05.787Z,4.57
2018-03-23T08:35:34.234Z,4.20
2018-03-23T08:38:02.574Z,4.03
2018-03-23T08:40:30.162Z,4.17
2018-03-23T08:42:57.734Z,4.47
2018-03-23T08:45:26.090Z,4.53
2018-03-23T08:47:53.658Z,4.33
2018-03-23T08:50:22.014Z,3.93
2018-03-23T08:52:49.577Z,4.10
2018-03-23T08:55:17.171Z,4.20
2018-03-23T08:57:44.734Z,4.00
2018-03-23T09:00:12.315Z,4.50
2018-03-23T09:02:39.877Z,3.80
2018-03-23T09:05:07.489Z,3.83
2018-03-23T09:07:35.812Z,4.10
2018-03-23T09:10:03.445Z,4.70
2018-03-23T09:12:31.205Z,4.67
2018-03-23T09:14:59.581Z,4.60
2018-03-23T09:17:27.914Z,5.43
2018-03-23T09:19:55.472Z,5.87
2018-03-23T09:22:23.063Z,5.73
2018-03-23T09:24:50.628Z,5.17
2018-03-23T09:27:18.221Z,6.07
2018-03-23T09:29:45.787Z,6.07
2018-03-23T09:32:13.378Z,5.10
2018-03-23T09:34:40.946Z,4.50
2018-03-23T09:37:08.534Z,4.57
2018-03-23T09:39:36.107Z,5.77
2018-03-23T09:42:03.694Z,4.57
2018-03-23T09:44:31.265Z,5.10
2018-03-23T09:46:58.861Z,5.77
2018-03-23T09:49:26.425Z,4.77
2018-03-23T09:51:54.769Z,5.27
2018-03-23T09:54:22.341Z,5.73
2018-03-23T09:56:49.926Z,5.17
2018-03-23T09:59:17.489Z,6.23
2018-03-23T10:01:45.077Z,6.90
2018-03-23T10:04:12.646Z,6.40
2018-03-23T10:06:40.254Z,5.70
2018-03-23T10:09:09.773Z,5.63
2018-03-23T10:11:37.340Z,7.57
2018-03-23T10:14:04.929Z,5.60
2018-03-23T10:16:33.300Z,6.13
2018-03-23T10:19:01.654Z,6.50
2018-03-23T10:21:29.274Z,5.13
2018-03-23T10:23:56.855Z,6.77
2018-03-23T10:26:24.430Z,4.97
2018-03-23T10:28:52.019Z,4.90
2018-03-23T10:31:19.597Z,5.40
2018-03-23T10:33:47.199Z,5.90
2018-03-23T10:36:14.762Z,5.90
2018-03-23T10:38:42.346Z,5.57
2018-03-23T10:41:09.905Z,4.80
2018-03-23T10:43:37.493Z,5.60
2018-03-23T10:46:05.057Z,5.30
2018-03-23T10:48:32.654Z,4.77
2018-03-23T10:51:00.223Z,4.17
2018-03-23T10:53:27.992Z,3.97
2018-03-23T10:55:55.568Z,4.10
2018-03-23T10:58:23.177Z,4.07
2018-03-23T11:00:57.123Z,4.40
2018-03-23T11:03:24.705Z,4.40
2018-03-23T11:05:55.705Z,4.53
2018-03-23T11:08:23.288Z,4.83
2018-03-23T11:10:50.855Z,5.13
2018-03-23T11:13:18.426Z,3.03
2018-03-23T11:15:46.068Z,4.57
2018-03-23T11:18:13.629Z,7.70
2018-03-23T11:20:41.205Z,4.23
2018-03-23T11:23:08.813Z,5.50
2018-03-23T11:25:36.397Z,5.43
2018-03-23T11:28:03.959Z,4.63
2018-03-23T11:30:31.550Z,5.20
2018-03-23T11:32:59.122Z,4.50
2018-03-23T11:35:26.716Z,5.10
2018-03-23T11:37:54.292Z,4.00
2018-03-23T11:40:21.892Z,4.80
2018-03-23T11:42:49.459Z,3.67
2018-03-23T11:45:17.051Z,4.30
2018-03-23T11:47:44.614Z,5.00
2018-03-23T11:50:12.199Z,5.17
2018-03-23T11:52:39.766Z,4.00
2018-03-23T11:55:07.369Z,3.47
2018-03-23T11:57:35.705Z,4.37
2018-03-23T12:00:03.297Z,3.97
2018-03-23T12:02:30.865Z,3.93
2018-03-23T12:04:59.213Z,3.13
2018-03-23T12:07:26.785Z,3.47
2018-03-23T12:09:55.245Z,3.40
2018-03-23T12:12:22.838Z,2.97
2018-03-23T12:14:51.170Z,3.70
2018-03-23T12:17:19.522Z,4.37
2018-03-23T12:19:47.098Z,3.70
2018-03-23T12:22:14.705Z,5.50
2018-03-23T12:24:42.278Z,3.70
2018-03-23T12:27:10.633Z,5.00
2018-03-23T12:29:38.197Z,5.00
2018-03-23T12:32:05.820Z,4.20
2018-03-23T12:34:33.380Z,3.60
2018-03-23T12:37:00.960Z,3.90
2018-03-23T12:39:29.313Z,3.57
2018-03-23T12:41:56.894Z,3.30
2018-03-23T12:44:24.466Z,3.17
2018-03-23T12:46:52.052Z,4.10
2018-03-23T12:49:19.624Z,4.23
2018-03-23T12:51:47.210Z,2.93
2018-03-23T12:54:14.783Z,3.40
2018-03-23T12:56:42.390Z,4.53
2018-03-23T12:59:09.956Z,3.30
2018-03-23T13:01:37.549Z,3.07
2018-03-23T13:04:05.125Z,3.23
2018-03-23T13:06:32.742Z,4.33
2018-03-23T13:09:00.317Z,4.43
2018-03-23T13:11:27.886Z,3.27
2018-03-23T13:13:55.472Z,2.90
2018-03-23T13:16:23.778Z,4.20
2018-03-23T13:18:51.377Z,3.30
2018-03-23T13:21:18.957Z,7.30
2018-03-23T13:23:46.550Z,8.57
2018-03-23T13:26:14.890Z,4.50
2018-03-23T13:28:42.482Z,3.23
2018-03-23T13:31:10.048Z,4.80
2018-03-23T13:33:37.637Z,5.60
2018-03-23T13:36:05.273Z,9.83
2018-03-23T13:38:32.884Z,8.60
2018-03-23T13:41:00.508Z,15.77
2018-03-23T13:43:28.105Z,4.70
2018-03-23T13:45:55.682Z,5.63
2018-03-23T13:48:23.280Z,4.90
2018-03-23T13:50:50.840Z,4.30
2018-03-23T13:53:18.426Z,2.43
2018-03-23T13:55:45.992Z,2.70
2018-03-23T13:58:13.638Z,2.80
2018-03-23T14:00:46.774Z,3.40
2018-03-23T14:03:15.129Z,3.70
2018-03-23T14:05:42.696Z,3.33
2018-03-23T14:08:10.267Z,3.10
2018-03-23T14:10:38.629Z,2.70
2018-03-23T14:13:06.198Z,3.17
2018-03-23T14:15:33.782Z,2.97
2018-03-23T14:18:01.351Z,3.20
2018-03-23T14:20:28.937Z,3.30
2018-03-23T14:22:56.510Z,3.47
2018-03-23T14:25:24.178Z,2.90
2018-03-23T14:27:53.102Z,2.77
2018-03-23T14:30:21.453Z,2.90
2018-03-23T14:32:49.020Z,2.93
2018-03-23T14:35:16.609Z,2.83
2018-03-23T14:37:44.205Z,3.23
2018-03-23T14:40:11.798Z,2.80
2018-03-23T14:42:39.367Z,3.50
2018-03-23T14:45:38.636Z,3.20
2018-03-23T14:48:06.202Z,4.53
2018-03-23T14:50:33.794Z,3.37
2018-03-23T14:53:01.366Z,3.03
2018-03-23T14:55:28.957Z,3.13
2018-03-23T14:57:56.522Z,3.37
2018-03-23T15:00:24.111Z,3.13
2018-03-23T15:02:51.687Z,3.57
2018-03-23T15:05:19.284Z,2.80
2018-03-23T15:07:46.854Z,4.30
2018-03-23T15:10:14.476Z,3.20
2018-03-23T15:12:42.798Z,3.83
2018-03-23T15:15:10.398Z,5.20
2018-03-23T15:17:37.970Z,3.63
2018-03-23T15:20:05.562Z,5.93
2018-03-23T15:22:33.149Z,5.53
2018-03-23T15:25:00.720Z,3.97
2018-03-23T15:27:28.305Z,5.07
2018-03-23T15:29:55.880Z,5.40
2018-03-23T15:32:23.483Z,4.47
2018-03-23T15:34:51.058Z,4.30
2018-03-23T15:37:18.649Z,4.33
2018-03-23T15:39:46.221Z,4.27
2018-03-23T15:42:13.816Z,4.87
2018-03-23T15:44:41.386Z,4.17
2018-03-23T15:47:08.973Z,4.70
2018-03-23T15:49:36.536Z,4.90
2018-03-23T15:52:04.893Z,4.60
2018-03-23T15:54:35.068Z,4.97
2018-03-23T15:57:02.695Z,4.57
2018-03-23T15:59:31.031Z,4.50
2018-03-23T16:01:58.678Z,5.80
2018-03-23T16:04:26.266Z,7.10
2018-03-23T16:10:10.885Z,7.70
2018-03-23T16:12:38.482Z,8.80
2018-03-23T16:15:06.308Z,8.23
2018-03-23T16:17:33.894Z,7.20
2018-03-23T16:20:01.470Z,7.70
2018-03-23T16:22:29.067Z,8.10
2018-03-23T16:24:57.404Z,7.83
2018-03-23T16:27:25.005Z,8.60
2018-03-23T16:29:52.576Z,9.03
2018-03-23T16:32:20.449Z,8.40
2018-03-23T16:34:48.019Z,8.87
2018-03-23T16:37:15.619Z,8.10
2018-03-23T16:39:43.194Z,9.17
2018-03-23T16:42:10.762Z,9.17
2018-03-23T16:44:38.354Z,8.97
2018-03-23T16:47:05.927Z,8.93
2018-03-23T16:49:33.509Z,8.37
2018-03-23T16:52:01.077Z,9.60
2018-03-23T16:54:28.664Z,8.83
2018-03-23T16:56:56.236Z,9.97
2018-03-23T16:59:23.836Z,10.40
2018-03-23T17:01:51.396Z,8.77
2018-03-23T17:04:18.981Z,8.50
2018-03-23T17:06:46.576Z,8.70
2018-03-23T17:09:14.174Z,9.90
2018-03-23T17:11:41.762Z,11.77
2018-03-23T17:14:09.349Z,9.70
2018-03-23T17:16:36.913Z,11.23
2018-03-23T17:19:04.505Z,10.90
2018-03-23T17:21:32.106Z,9.27
2018-03-23T17:23:59.705Z,8.60
2018-03-23T17:26:27.278Z,9.97
2018-03-23T17:28:54.861Z,7.17
2018-03-23T17:31:22.433Z,7.70
2018-03-23T17:33:50.034Z,7.03
2018-03-23T17:36:18.495Z,8.00
2018-03-23T17:38:46.064Z,7.10
2018-03-23T17:41:13.655Z,8.13
2018-03-23T17:43:41.229Z,10.30
2018-03-23T17:46:08.826Z,10.80
2018-03-23T17:48:36.404Z,10.40
2018-03-23T17:51:03.988Z,9.37
2018-03-23T17:53:31.562Z,11.10
2018-03-23T17:55:59.927Z,13.80
2018-03-23T17:58:27.485Z,9.43
2018-03-23T18:00:55.069Z,8.70
2018-03-23T18:03:22.638Z,8.63
2018-03-23T18:05:50.242Z,10.03
2018-03-23T18:08:17.812Z,10.57
2018-03-23T18:10:45.402Z,12.97
2018-03-23T18:13:12.988Z,24.40
2018-03-23T18:15:40.641Z,66.60
2018-03-23T18:18:08.212Z,28.73
2018-03-23T18:20:37.545Z,13.53
2018-03-23T18:23:05.474Z,27.63
2018-03-23T18:25:33.056Z,11.80
2018-03-23T18:28:00.629Z,10.63
2018-03-23T18:30:28.217Z,10.63
2018-03-23T18:32:55.796Z,12.40
2018-03-23T18:35:23.394Z,10.20
2018-03-23T18:37:50.957Z,16.97
2018-03-23T18:40:18.573Z,20.50
2018-03-23T18:42:46.146Z,12.20
2018-03-23T18:45:13.774Z,26.80
2018-03-23T18:47:41.336Z,21.00
2018-03-23T18:50:08.922Z,16.70
2018-03-23T18:52:36.532Z,16.30
2018-03-23T18:55:04.106Z,16.60
2018-03-23T18:57:31.701Z,13.77
2018-03-23T18:59:59.261Z,17.40
2018-03-23T19:02:27.618Z,20.80
2018-03-23T19:04:55.181Z,10.97
2018-03-23T19:07:22.816Z,15.07
2018-03-23T19:09:50.369Z,14.13
2018-03-23T19:12:17.987Z,15.73
2018-03-23T19:14:45.573Z,15.00
2018-03-23T19:17:13.171Z,14.40
2018-03-23T19:19:41.321Z,19.63
2018-03-23T19:22:08.914Z,14.77
2018-03-23T19:24:36.494Z,10.93
2018-03-23T19:27:04.855Z,14.17
2018-03-23T19:29:32.421Z,16.17
2018-03-23T19:32:00.776Z,12.13
2018-03-23T19:34:28.349Z,18.80
2018-03-23T19:36:55.947Z,26.50
2018-03-23T19:39:23.529Z,24.20
2018-03-23T19:41:51.116Z,15.17
2018-03-23T19:44:18.681Z,15.70
2018-03-23T19:46:46.254Z,13.33
2018-03-23T19:49:13.846Z,12.60
2018-03-23T19:51:41.461Z,12.67
2018-03-23T19:54:09.064Z,16.80
2018-03-23T19:56:36.698Z,16.57
2018-03-23T19:59:04.321Z,18.33
2018-03-23T20:01:31.892Z,17.73
2018-03-23T20:03:59.487Z,16.43
2018-03-23T20:06:27.830Z,17.90
2018-03-23T20:08:55.631Z,18.20
2018-03-23T20:11:23.201Z,17.13
2018-03-23T20:13:56.431Z,22.37
2018-03-23T20:16:24.001Z,25.50
2018-03-23T20:18:51.589Z,22.97
2018-03-23T20:21:19.917Z,22.70
2018-03-23T20:23:47.512Z,33.97
2018-03-23T20:26:15.089Z,21.90
2018-03-23T20:28:43.603Z,22.17
2018-03-23T20:31:11.173Z,18.20
2018-03-23T20:33:38.758Z,14.50
2018-03-23T20:36:06.337Z,15.03
2018-03-23T20:38:34.693Z,15.83
2018-03-23T20:41:02.261Z,18.47
2018-03-23T20:43:29.893Z,13.13
2018-03-23T20:45:57.518Z,16.63
2018-03-23T20:48:25.112Z,15.90
2018-03-23T20:50:52.694Z,14.33
2018-03-23T20:53:20.281Z,22.60
2018-03-23T20:55:48.616Z,15.23
2018-03-23T20:58:16.228Z,23.20
2018-03-23T21:00:43.793Z,19.43
2018-03-23T21:03:11.362Z,14.43
2018-03-23T21:05:38.959Z,19.27
2018-03-23T21:08:06.531Z,16.93
2018-03-23T21:10:34.126Z,31.30
2018-03-23T21:13:01.702Z,15.27
2018-03-23T21:15:29.363Z,20.67
2018-03-23T21:17:56.928Z,21.00
2018-03-23T21:20:24.527Z,26.83
2018-03-23T21:22:52.092Z,28.77
2018-03-23T21:25:19.695Z,20.57
2018-03-23T21:27:47.266Z,24.20
2018-03-23T21:30:14.862Z,20.00
2018-03-23T21:32:42.428Z,20.87
2018-03-23T21:35:10.019Z,36.50
2018-03-23T21:37:37.588Z,23.80
2018-03-23T21:40:05.181Z,26.93
2018-03-23T21:42:32.773Z,14.43
2018-03-23T21:45:01.136Z,28.17
2018-03-23T21:47:28.706Z,21.03
2018-03-23T21:49:56.306Z,13.07
2018-03-23T21:52:23.883Z,19.50
2018-03-23T21:54:51.469Z,22.43
2018-03-23T21:57:19.054Z,21.37
2018-03-23T21:59:47.419Z,21.30
2018-03-23T22:02:14.993Z,14.80
2018-03-23T22:04:43.341Z,17.73
2018-03-23T22:07:10.933Z,20.17
2018-03-23T22:09:38.505Z,11.80
2018-03-23T22:12:06.102Z,10.10
2018-03-23T22:14:34.441Z,7.97
2018-03-23T22:17:02.042Z,15.33
2018-03-23T22:19:29.614Z,16.10
2018-03-23T22:21:57.209Z,12.43
2018-03-23T22:24:27.410Z,7.07
2018-03-23T22:26:55.007Z,30.57
2018-03-23T22:29:22.574Z,23.40
2018-03-23T22:31:50.160Z,15.00
2018-03-23T22:34:17.734Z,22.80
2018-03-23T22:36:45.321Z,19.67
2018-03-23T22:39:12.881Z,11.57
2018-03-23T22:41:41.246Z,11.73
2018-03-23T22:44:09.572Z,6.83
2018-03-23T22:46:37.304Z,11.83
2018-03-23T22:49:04.869Z,20.10
2018-03-23T22:51:32.449Z,9.33
2018-03-23T22:54:00.018Z,13.57
2018-03-23T22:56:27.610Z,7.17
2018-03-23T22:58:55.173Z,6.80
2018-03-23T23:01:22.756Z,7.17
2018-03-23T23:03:51.090Z,7.93
2018-03-23T23:06:18.683Z,8.87
2018-03-23T23:08:46.245Z,11.33
2018-03-23T23:11:13.838Z,29.87
2018-03-23T23:13:41.414Z,14.67
2018-03-23T23:16:09.898Z,11.67
2018-03-23T23:18:37.484Z,10.77
2018-03-23T23:21:05.062Z,12.40
2018-03-23T23:23:32.657Z,14.63
2018-03-23T23:26:00.221Z,26.40
2018-03-23T23:28:27.821Z,13.20
2018-03-23T23:30:55.384Z,13.60
2018-03-23T23:33:22.978Z,9.73
2018-03-23T23:35:50.541Z,9.50
2018-03-23T23:38:18.133Z,10.40
2018-03-23T23:40:46.476Z,10.00
2018-03-23T23:43:14.061Z,9.87
2018-03-23T23:45:41.629Z,10.33
2018-03-23T23:48:09.222Z,8.73
2018-03-23T23:50:36.785Z,8.33
2018-03-23T23:53:05.135Z,8.23
2018-03-23T23:55:32.701Z,8.70
2018-03-23T23:58:00.284Z,8.83
